sensor_id;sensor_type;location;lat;lon;timestamp;temperature;humidity
70986;DHT22;58645;43.068;25.610;2022-11-12T00:01:21;9.80;99.90
70986;DHT22;58645;43.068;25.610;2022-11-12T00:03:47;9.80;99.90
70986;DHT22;58645;43.068;25.610;2022-11-12T00:06:13;9.80;99.90
70986;DHT22;58645;43.068;25.610;2022-11-12T00:08:38;9.80;99.90
70986;DHT22;58645;43.068;25.610;2022-11-12T00:11:04;9.80;99.90
70986;DHT22;58645;43.068;25.610;2022-11-12T00:13:30;9.80;99.90
70986;DHT22;58645;43.068;25.610;2022-11-12T00:15:56;9.80;99.90
70986;DHT22;58645;43.068;25.610;2022-11-12T00:18:22;9.80;99.90
70986;DHT22;58645;43.068;25.610;2022-11-12T00:20:48;9.90;99.90
70986;DHT22;58645;43.068;25.610;2022-11-12T00:23:13;9.80;99.90
70986;DHT22;58645;43.068;25.610;2022-11-12T00:25:39;9.90;99.90
70986;DHT22;58645;43.068;25.610;2022-11-12T00:28:09;9.90;99.90
70986;DHT22;58645;43.068;25.610;2022-11-12T00:30:39;9.90;99.90
70986;DHT22;58645;43.068;25.610;2022-11-12T00:33:05;9.80;99.90
70986;DHT22;58645;43.068;25.610;2022-11-12T00:35:32;9.80;99.90
70986;DHT22;58645;43.068;25.610;2022-11-12T00:37:58;9.80;99.90
70986;DHT22;58645;43.068;25.610;2022-11-12T00:40:25;9.80;99.90
70986;DHT22;58645;43.068;25.610;2022-11-12T00:42:51;9.80;99.90
70986;DHT22;58645;43.068;25.610;2022-11-12T00:45:20;9.80;99.90
70986;DHT22;58645;43.068;25.610;2022-11-12T00:47:45;9.80;99.90
70986;DHT22;58645;43.068;25.610;2022-11-12T00:50:11;9.80;99.90
70986;DHT22;58645;43.068;25.610;2022-11-12T00:52:38;9.80;99.90
70986;DHT22;58645;43.068;25.610;2022-11-12T00:55:03;9.90;99.90
70986;DHT22;58645;43.068;25.610;2022-11-12T00:57:29;9.90;99.90
70986;DHT22;58645;43.068;25.610;2022-11-12T00:59:55;9.90;99.90
70986;DHT22;58645;43.068;25.610;2022-11-12T01:02:21;9.80;99.90
70986;DHT22;58645;43.068;25.610;2022-11-12T01:04:47;9.90;99.90
70986;DHT22;58645;43.068;25.610;2022-11-12T01:07:13;9.80;99.90
70986;DHT22;58645;43.068;25.610;2022-11-12T01:09:40;9.80;99.90
70986;DHT22;58645;43.068;25.610;2022-11-12T01:12:06;9.80;99.90
70986;DHT22;58645;43.068;25.610;2022-11-12T01:14:32;9.80;99.90
70986;DHT22;58645;43.068;25.610;2022-11-12T01:16:58;9.80;99.90
70986;DHT22;58645;43.068;25.610;2022-11-12T01:19:24;9.80;99.90
70986;DHT22;58645;43.068;25.610;2022-11-12T01:21:50;9.80;99.90
70986;DHT22;58645;43.068;25.610;2022-11-12T01:24:16;9.80;99.90
70986;DHT22;58645;43.068;25.610;2022-11-12T01:26:41;9.80;99.90
70986;DHT22;58645;43.068;25.610;2022-11-12T01:29:07;9.80;99.90
70986;DHT22;58645;43.068;25.610;2022-11-12T01:31:37;9.80;99.90
70986;DHT22;58645;43.068;25.610;2022-11-12T01:34:05;9.80;99.90
70986;DHT22;58645;43.068;25.610;2022-11-12T01:36:36;9.70;99.90
70986;DHT22;58645;43.068;25.610;2022-11-12T01:39:04;9.70;99.90
70986;DHT22;58645;43.068;25.610;2022-11-12T01:41:31;9.70;99.90
70986;DHT22;58645;43.068;25.610;2022-11-12T01:44:19;9.70;99.90
70986;DHT22;58645;43.068;25.610;2022-11-12T01:49:34;9.60;99.90
70986;DHT22;58645;43.068;25.610;2022-11-12T01:54:42;9.70;99.90
70986;DHT22;58645;43.068;25.610;2022-11-12T01:57:11;9.70;99.90
70986;DHT22;58645;43.068;25.610;2022-11-12T01:59:40;9.70;99.90
70986;DHT22;58645;43.068;25.610;2022-11-12T02:02:08;9.70;99.90
70986;DHT22;58645;43.068;25.610;2022-11-12T02:04:36;9.70;99.90
70986;DHT22;58645;43.068;25.610;2022-11-12T02:07:05;9.80;99.90
70986;DHT22;58645;43.068;25.610;2022-11-12T02:09:31;9.80;99.90
70986;DHT22;58645;43.068;25.610;2022-11-12T02:11:58;9.80;99.90
70986;DHT22;58645;43.068;25.610;2022-11-12T02:14:24;9.80;99.90
70986;DHT22;58645;43.068;25.610;2022-11-12T02:16:50;9.90;99.90
70986;DHT22;58645;43.068;25.610;2022-11-12T02:19:16;9.80;99.90
70986;DHT22;58645;43.068;25.610;2022-11-12T02:21:42;9.90;99.90
70986;DHT22;58645;43.068;25.610;2022-11-12T02:26:41;9.90;99.90
70986;DHT22;58645;43.068;25.610;2022-11-12T02:29:07;9.90;99.90
70986;DHT22;58645;43.068;25.610;2022-11-12T02:31:33;9.90;99.90
70986;DHT22;58645;43.068;25.610;2022-11-12T02:33:59;9.90;99.90
70986;DHT22;58645;43.068;25.610;2022-11-12T02:36:25;9.90;99.90
70986;DHT22;58645;43.068;25.610;2022-11-12T02:38:51;9.90;99.90
70986;DHT22;58645;43.068;25.610;2022-11-12T02:41:17;9.90;99.90
70986;DHT22;58645;43.068;25.610;2022-11-12T02:43:43;9.90;99.90
70986;DHT22;58645;43.068;25.610;2022-11-12T02:46:09;9.90;99.90
70986;DHT22;58645;43.068;25.610;2022-11-12T02:48:35;9.90;99.90
70986;DHT22;58645;43.068;25.610;2022-11-12T02:51:01;10.00;99.90
70986;DHT22;58645;43.068;25.610;2022-11-12T02:53:27;9.90;99.90
70986;DHT22;58645;43.068;25.610;2022-11-12T02:55:52;9.90;99.90
70986;DHT22;58645;43.068;25.610;2022-11-12T02:58:18;9.90;99.90
70986;DHT22;58645;43.068;25.610;2022-11-12T03:00:47;9.90;99.90
70986;DHT22;58645;43.068;25.610;2022-11-12T03:03:13;9.90;99.90
70986;DHT22;58645;43.068;25.610;2022-11-12T03:05:38;9.90;99.90
70986;DHT22;58645;43.068;25.610;2022-11-12T03:08:06;9.80;99.90
70986;DHT22;58645;43.068;25.610;2022-11-12T03:10:32;9.80;99.90
70986;DHT22;58645;43.068;25.610;2022-11-12T03:12:59;9.90;99.90
70986;DHT22;58645;43.068;25.610;2022-11-12T03:15:26;9.80;99.90
70986;DHT22;58645;43.068;25.610;2022-11-12T03:17:52;9.80;99.90
70986;DHT22;58645;43.068;25.610;2022-11-12T03:20:18;9.80;99.90
70986;DHT22;58645;43.068;25.610;2022-11-12T03:22:58;9.80;99.90
70986;DHT22;58645;43.068;25.610;2022-11-12T03:25:25;9.80;99.90
70986;DHT22;58645;43.068;25.610;2022-11-12T03:28:12;9.80;99.90
70986;DHT22;58645;43.068;25.610;2022-11-12T03:30:39;9.80;99.90
70986;DHT22;58645;43.068;25.610;2022-11-12T03:33:06;9.80;99.90
70986;DHT22;58645;43.068;25.610;2022-11-12T03:35:33;9.80;99.90
70986;DHT22;58645;43.068;25.610;2022-11-12T03:37:59;9.90;99.90
70986;DHT22;58645;43.068;25.610;2022-11-12T03:40:25;9.90;99.90
70986;DHT22;58645;43.068;25.610;2022-11-12T03:42:51;9.90;99.90
70986;DHT22;58645;43.068;25.610;2022-11-12T03:45:19;9.90;99.90
70986;DHT22;58645;43.068;25.610;2022-11-12T03:47:47;9.90;99.90
70986;DHT22;58645;43.068;25.610;2022-11-12T03:50:15;9.90;99.90
70986;DHT22;58645;43.068;25.610;2022-11-12T03:52:48;9.90;99.90
70986;DHT22;58645;43.068;25.610;2022-11-12T03:55:16;9.90;99.90
70986;DHT22;58645;43.068;25.610;2022-11-12T03:57:42;9.90;99.90
70986;DHT22;58645;43.068;25.610;2022-11-12T04:00:10;9.90;99.90
70986;DHT22;58645;43.068;25.610;2022-11-12T04:02:37;9.90;99.90
70986;DHT22;58645;43.068;25.610;2022-11-12T04:05:05;9.90;99.90
70986;DHT22;58645;43.068;25.610;2022-11-12T04:07:58;9.90;99.90
70986;DHT22;58645;43.068;25.610;2022-11-12T04:10:43;9.80;99.90
70986;DHT22;58645;43.068;25.610;2022-11-12T04:13:09;9.90;99.90
70986;DHT22;58645;43.068;25.610;2022-11-12T04:15:59;9.90;99.90
70986;DHT22;58645;43.068;25.610;2022-11-12T04:18:46;9.90;99.90
70986;DHT22;58645;43.068;25.610;2022-11-12T04:21:35;9.80;99.90
70986;DHT22;58645;43.068;25.610;2022-11-12T04:24:28;9.80;99.90
70986;DHT22;58645;43.068;25.610;2022-11-12T04:27:21;9.90;99.90
70986;DHT22;58645;43.068;25.610;2022-11-12T04:29:47;9.80;99.90
70986;DHT22;58645;43.068;25.610;2022-11-12T04:32:34;9.80;99.90
70986;DHT22;58645;43.068;25.610;2022-11-12T04:35:00;9.80;99.90
70986;DHT22;58645;43.068;25.610;2022-11-12T04:37:28;9.80;99.90
70986;DHT22;58645;43.068;25.610;2022-11-12T04:39:54;9.80;99.90
70986;DHT22;58645;43.068;25.610;2022-11-12T04:42:19;9.70;99.90
70986;DHT22;58645;43.068;25.610;2022-11-12T04:45:10;9.70;99.90
70986;DHT22;58645;43.068;25.610;2022-11-12T04:47:38;9.70;99.90
70986;DHT22;58645;43.068;25.610;2022-11-12T04:50:09;9.70;99.90
70986;DHT22;58645;43.068;25.610;2022-11-12T04:52:37;9.70;99.90
70986;DHT22;58645;43.068;25.610;2022-11-12T04:55:03;9.70;99.90
70986;DHT22;58645;43.068;25.610;2022-11-12T04:57:29;9.70;99.90
70986;DHT22;58645;43.068;25.610;2022-11-12T04:59:54;9.70;99.90
70986;DHT22;58645;43.068;25.610;2022-11-12T05:02:20;9.70;99.90
70986;DHT22;58645;43.068;25.610;2022-11-12T05:04:46;9.60;99.90
70986;DHT22;58645;43.068;25.610;2022-11-12T05:07:12;9.60;99.90
70986;DHT22;58645;43.068;25.610;2022-11-12T05:09:38;9.60;99.90
70986;DHT22;58645;43.068;25.610;2022-11-12T05:12:04;9.50;99.90
70986;DHT22;58645;43.068;25.610;2022-11-12T05:14:30;9.60;99.90
70986;DHT22;58645;43.068;25.610;2022-11-12T05:16:56;9.50;99.90
70986;DHT22;58645;43.068;25.610;2022-11-12T05:19:22;9.60;99.90
70986;DHT22;58645;43.068;25.610;2022-11-12T05:21:47;9.50;99.90
70986;DHT22;58645;43.068;25.610;2022-11-12T05:24:42;9.50;99.90
70986;DHT22;58645;43.068;25.610;2022-11-12T05:27:10;9.50;99.90
70986;DHT22;58645;43.068;25.610;2022-11-12T05:29:37;9.50;99.90
70986;DHT22;58645;43.068;25.610;2022-11-12T05:32:04;9.40;99.90
70986;DHT22;58645;43.068;25.610;2022-11-12T05:34:30;9.40;99.90
70986;DHT22;58645;43.068;25.610;2022-11-12T05:36:56;9.40;99.90
70986;DHT22;58645;43.068;25.610;2022-11-12T05:39:22;9.40;99.90
70986;DHT22;58645;43.068;25.610;2022-11-12T05:41:48;9.40;99.90
70986;DHT22;58645;43.068;25.610;2022-11-12T05:44:14;9.50;99.90
70986;DHT22;58645;43.068;25.610;2022-11-12T05:46:39;9.50;99.90
70986;DHT22;58645;43.068;25.610;2022-11-12T05:49:05;9.50;99.90
70986;DHT22;58645;43.068;25.610;2022-11-12T05:51:31;9.50;99.90
70986;DHT22;58645;43.068;25.610;2022-11-12T05:53:56;9.50;99.90
70986;DHT22;58645;43.068;25.610;2022-11-12T05:56:22;9.70;99.90
70986;DHT22;58645;43.068;25.610;2022-11-12T05:58:48;9.70;99.90
70986;DHT22;58645;43.068;25.610;2022-11-12T06:01:14;9.80;99.90
70986;DHT22;58645;43.068;25.610;2022-11-12T06:03:39;9.80;99.90
70986;DHT22;58645;43.068;25.610;2022-11-12T06:06:05;9.80;99.90
70986;DHT22;58645;43.068;25.610;2022-11-12T06:08:31;9.80;99.90
70986;DHT22;58645;43.068;25.610;2022-11-12T06:10:57;9.90;99.90
70986;DHT22;58645;43.068;25.610;2022-11-12T06:13:23;9.90;99.90
70986;DHT22;58645;43.068;25.610;2022-11-12T06:15:51;9.90;99.90
70986;DHT22;58645;43.068;25.610;2022-11-12T06:18:16;9.90;99.90
70986;DHT22;58645;43.068;25.610;2022-11-12T06:20:42;9.90;99.90
70986;DHT22;58645;43.068;25.610;2022-11-12T06:23:08;10.00;99.90
70986;DHT22;58645;43.068;25.610;2022-11-12T06:25:34;10.00;99.90
70986;DHT22;58645;43.068;25.610;2022-11-12T06:27:59;10.00;99.90
70986;DHT22;58645;43.068;25.610;2022-11-12T06:30:25;10.00;99.90
70986;DHT22;58645;43.068;25.610;2022-11-12T06:32:51;10.00;99.90
70986;DHT22;58645;43.068;25.610;2022-11-12T06:35:18;10.00;99.90
70986;DHT22;58645;43.068;25.610;2022-11-12T06:37:48;10.00;99.90
70986;DHT22;58645;43.068;25.610;2022-11-12T06:40:15;9.90;99.90
70986;DHT22;58645;43.068;25.610;2022-11-12T06:42:40;9.90;99.90
70986;DHT22;58645;43.068;25.610;2022-11-12T06:45:06;9.90;99.90
70986;DHT22;58645;43.068;25.610;2022-11-12T06:47:32;10.00;99.90
70986;DHT22;58645;43.068;25.610;2022-11-12T06:49:58;10.00;99.90
70986;DHT22;58645;43.068;25.610;2022-11-12T06:52:23;9.90;99.90
70986;DHT22;58645;43.068;25.610;2022-11-12T06:54:49;9.90;99.90
70986;DHT22;58645;43.068;25.610;2022-11-12T06:57:15;9.90;99.90
70986;DHT22;58645;43.068;25.610;2022-11-12T06:59:40;10.00;99.90
70986;DHT22;58645;43.068;25.610;2022-11-12T07:02:06;10.00;99.90
70986;DHT22;58645;43.068;25.610;2022-11-12T07:04:32;10.10;99.90
70986;DHT22;58645;43.068;25.610;2022-11-12T07:06:57;10.20;99.90
70986;DHT22;58645;43.068;25.610;2022-11-12T07:09:23;10.20;99.90
70986;DHT22;58645;43.068;25.610;2022-11-12T07:11:49;10.30;99.90
70986;DHT22;58645;43.068;25.610;2022-11-12T07:14:14;10.30;99.90
70986;DHT22;58645;43.068;25.610;2022-11-12T07:16:40;10.40;99.90
70986;DHT22;58645;43.068;25.610;2022-11-12T07:19:06;10.40;99.90
70986;DHT22;58645;43.068;25.610;2022-11-12T07:21:31;10.40;99.90
70986;DHT22;58645;43.068;25.610;2022-11-12T07:23:57;10.50;99.90
70986;DHT22;58645;43.068;25.610;2022-11-12T07:26:25;10.50;99.90
70986;DHT22;58645;43.068;25.610;2022-11-12T07:28:52;10.60;99.90
70986;DHT22;58645;43.068;25.610;2022-11-12T07:31:21;10.60;99.90
70986;DHT22;58645;43.068;25.610;2022-11-12T07:33:47;10.70;99.90
70986;DHT22;58645;43.068;25.610;2022-11-12T07:36:15;10.80;99.90
70986;DHT22;58645;43.068;25.610;2022-11-12T07:38:43;10.80;99.90
70986;DHT22;58645;43.068;25.610;2022-11-12T07:41:12;10.80;99.90
70986;DHT22;58645;43.068;25.610;2022-11-12T07:43:40;10.80;99.90
70986;DHT22;58645;43.068;25.610;2022-11-12T07:46:26;10.80;99.90
70986;DHT22;58645;43.068;25.610;2022-11-12T07:48:53;10.80;99.90
70986;DHT22;58645;43.068;25.610;2022-11-12T07:51:25;10.90;99.90
70986;DHT22;58645;43.068;25.610;2022-11-12T07:53:53;10.90;99.90
70986;DHT22;58645;43.068;25.610;2022-11-12T07:56:20;11.00;99.90
70986;DHT22;58645;43.068;25.610;2022-11-12T07:58:46;10.90;99.90
70986;DHT22;58645;43.068;25.610;2022-11-12T08:01:30;10.90;99.90
70986;DHT22;58645;43.068;25.610;2022-11-12T08:03:58;10.90;99.90
70986;DHT22;58645;43.068;25.610;2022-11-12T08:06:24;10.90;99.90
70986;DHT22;58645;43.068;25.610;2022-11-12T08:08:52;10.90;99.90
70986;DHT22;58645;43.068;25.610;2022-11-12T08:11:18;10.90;99.90
70986;DHT22;58645;43.068;25.610;2022-11-12T08:13:44;10.80;99.90
70986;DHT22;58645;43.068;25.610;2022-11-12T08:16:10;10.80;99.90
70986;DHT22;58645;43.068;25.610;2022-11-12T08:18:35;10.90;99.90
70986;DHT22;58645;43.068;25.610;2022-11-12T08:21:03;10.90;99.90
70986;DHT22;58645;43.068;25.610;2022-11-12T08:23:29;11.00;99.90
70986;DHT22;58645;43.068;25.610;2022-11-12T08:26:03;11.00;99.90
70986;DHT22;58645;43.068;25.610;2022-11-12T08:28:31;11.10;99.90
70986;DHT22;58645;43.068;25.610;2022-11-12T08:31:01;11.10;99.90
70986;DHT22;58645;43.068;25.610;2022-11-12T08:33:28;11.00;99.90
70986;DHT22;58645;43.068;25.610;2022-11-12T08:35:54;11.10;99.90
70986;DHT22;58645;43.068;25.610;2022-11-12T08:38:20;11.20;99.90
70986;DHT22;58645;43.068;25.610;2022-11-12T08:40:45;11.20;99.90
70986;DHT22;58645;43.068;25.610;2022-11-12T08:43:11;11.20;99.90
70986;DHT22;58645;43.068;25.610;2022-11-12T08:45:38;11.20;99.90
70986;DHT22;58645;43.068;25.610;2022-11-12T08:48:07;11.20;99.90
70986;DHT22;58645;43.068;25.610;2022-11-12T08:50:34;11.20;99.90
70986;DHT22;58645;43.068;25.610;2022-11-12T08:53:01;11.20;99.90
70986;DHT22;58645;43.068;25.610;2022-11-12T08:55:28;11.20;99.90
70986;DHT22;58645;43.068;25.610;2022-11-12T08:57:54;11.20;99.90
70986;DHT22;58645;43.068;25.610;2022-11-12T09:00:20;11.20;99.90
70986;DHT22;58645;43.068;25.610;2022-11-12T09:02:45;11.20;99.90
70986;DHT22;58645;43.068;25.610;2022-11-12T09:05:11;11.10;99.90
70986;DHT22;58645;43.068;25.610;2022-11-12T09:07:37;11.20;99.90
70986;DHT22;58645;43.068;25.610;2022-11-12T09:10:03;11.20;99.90
70986;DHT22;58645;43.068;25.610;2022-11-12T09:12:29;11.20;99.90
70986;DHT22;58645;43.068;25.610;2022-11-12T09:14:54;11.20;99.90
70986;DHT22;58645;43.068;25.610;2022-11-12T09:17:20;11.10;99.90
70986;DHT22;58645;43.068;25.610;2022-11-12T09:19:46;11.10;99.90
70986;DHT22;58645;43.068;25.610;2022-11-12T09:22:12;11.10;99.90
70986;DHT22;58645;43.068;25.610;2022-11-12T09:24:37;11.10;99.90
70986;DHT22;58645;43.068;25.610;2022-11-12T09:27:03;11.00;99.90
70986;DHT22;58645;43.068;25.610;2022-11-12T09:29:29;11.00;99.90
70986;DHT22;58645;43.068;25.610;2022-11-12T09:31:54;11.00;99.90
70986;DHT22;58645;43.068;25.610;2022-11-12T09:34:20;11.10;99.90
70986;DHT22;58645;43.068;25.610;2022-11-12T09:36:46;11.10;99.90
70986;DHT22;58645;43.068;25.610;2022-11-12T09:39:12;11.10;99.90
70986;DHT22;58645;43.068;25.610;2022-11-12T09:41:39;11.10;99.90
70986;DHT22;58645;43.068;25.610;2022-11-12T09:44:18;11.20;99.90
70986;DHT22;58645;43.068;25.610;2022-11-12T09:47:05;11.20;99.90
70986;DHT22;58645;43.068;25.610;2022-11-12T09:49:38;11.10;99.90
70986;DHT22;58645;43.068;25.610;2022-11-12T09:52:34;11.10;99.90
70986;DHT22;58645;43.068;25.610;2022-11-12T09:55:29;11.10;99.90
70986;DHT22;58645;43.068;25.610;2022-11-12T09:57:56;11.20;99.90
70986;DHT22;58645;43.068;25.610;2022-11-12T10:00:22;11.10;99.90
70986;DHT22;58645;43.068;25.610;2022-11-12T10:02:52;11.10;99.90
70986;DHT22;58645;43.068;25.610;2022-11-12T10:05:21;11.00;99.90
70986;DHT22;58645;43.068;25.610;2022-11-12T10:10:39;11.00;99.90
70986;DHT22;58645;43.068;25.610;2022-11-12T10:24:14;11.20;99.90
70986;DHT22;58645;43.068;25.610;2022-11-12T10:26:40;11.30;99.90
70986;DHT22;58645;43.068;25.610;2022-11-12T10:32:12;11.20;99.90
70986;DHT22;58645;43.068;25.610;2022-11-12T10:34:39;11.20;99.90
70986;DHT22;58645;43.068;25.610;2022-11-12T10:37:19;11.30;99.90
70986;DHT22;58645;43.068;25.610;2022-11-12T10:39:47;11.30;99.90
70986;DHT22;58645;43.068;25.610;2022-11-12T10:42:18;11.20;99.90
70986;DHT22;58645;43.068;25.610;2022-11-12T10:44:44;11.20;99.90
70986;DHT22;58645;43.068;25.610;2022-11-12T10:47:26;11.20;99.90
70986;DHT22;58645;43.068;25.610;2022-11-12T10:52:34;11.10;99.90
70986;DHT22;58645;43.068;25.610;2022-11-12T10:55:16;11.10;99.90
70986;DHT22;58645;43.068;25.610;2022-11-12T10:57:43;11.00;99.90
70986;DHT22;58645;43.068;25.610;2022-11-12T11:02:49;10.90;99.90
70986;DHT22;58645;43.068;25.610;2022-11-12T11:07:56;10.80;99.90
70986;DHT22;58645;43.068;25.610;2022-11-12T11:10:24;10.80;99.90
70986;DHT22;58645;43.068;25.610;2022-11-12T11:13:17;10.90;99.90
70986;DHT22;58645;43.068;25.610;2022-11-12T11:16:00;10.90;99.90
70986;DHT22;58645;43.068;25.610;2022-11-12T11:18:28;11.10;99.90
70986;DHT22;58645;43.068;25.610;2022-11-12T11:21:13;11.10;99.90
70986;DHT22;58645;43.068;25.610;2022-11-12T11:30:18;11.50;99.90
70986;DHT22;58645;43.068;25.610;2022-11-12T11:35:06;11.60;99.90
70986;DHT22;58645;43.068;25.610;2022-11-12T11:38:06;11.70;99.90
70986;DHT22;58645;43.068;25.610;2022-11-12T11:41:19;11.70;99.90
70986;DHT22;58645;43.068;25.610;2022-11-12T11:43:57;11.80;99.90
70986;DHT22;58645;43.068;25.610;2022-11-12T11:49:23;11.70;99.90
70986;DHT22;58645;43.068;25.610;2022-11-12T11:52:20;11.70;99.90
70986;DHT22;58645;43.068;25.610;2022-11-12T12:00:15;11.80;99.90
70986;DHT22;58645;43.068;25.610;2022-11-12T12:02:49;11.90;99.90
70986;DHT22;58645;43.068;25.610;2022-11-12T12:10:49;12.10;99.90
70986;DHT22;58645;43.068;25.610;2022-11-12T12:13:26;12.00;99.90
70986;DHT22;58645;43.068;25.610;2022-11-12T12:21:30;11.60;99.90
70986;DHT22;58645;43.068;25.610;2022-11-12T12:24:01;11.60;99.90
70986;DHT22;58645;43.068;25.610;2022-11-12T12:26:44;11.60;99.90
70986;DHT22;58645;43.068;25.610;2022-11-12T12:29:31;11.50;99.90
70986;DHT22;58645;43.068;25.610;2022-11-12T12:32:13;11.40;99.90
70986;DHT22;58645;43.068;25.610;2022-11-12T12:34:45;11.40;99.90
70986;DHT22;58645;43.068;25.610;2022-11-12T12:37:30;11.40;99.90
70986;DHT22;58645;43.068;25.610;2022-11-12T12:40:24;11.30;99.90
70986;DHT22;58645;43.068;25.610;2022-11-12T12:42:59;11.30;99.90
70986;DHT22;58645;43.068;25.610;2022-11-12T12:45:41;11.30;99.90
70986;DHT22;58645;43.068;25.610;2022-11-12T12:48:31;11.30;99.90
70986;DHT22;58645;43.068;25.610;2022-11-12T12:50:58;11.30;99.90
70986;DHT22;58645;43.068;25.610;2022-11-12T12:56:04;11.20;99.90
70986;DHT22;58645;43.068;25.610;2022-11-12T13:03:50;11.20;99.90
70986;DHT22;58645;43.068;25.610;2022-11-12T13:08:57;11.20;99.90
70986;DHT22;58645;43.068;25.610;2022-11-12T13:43:38;10.90;99.90
70986;DHT22;58645;43.068;25.610;2022-11-12T13:46:13;10.90;99.90
70986;DHT22;58645;43.068;25.610;2022-11-12T13:53:59;10.80;99.90
70986;DHT22;58645;43.068;25.610;2022-11-12T13:56:33;10.80;99.90
70986;DHT22;58645;43.068;25.610;2022-11-12T13:59:20;10.80;99.90
70986;DHT22;58645;43.068;25.610;2022-11-12T14:01:48;10.70;99.90
70986;DHT22;58645;43.068;25.610;2022-11-12T14:04:19;10.70;99.90
70986;DHT22;58645;43.068;25.610;2022-11-12T14:06:53;10.70;99.90
70986;DHT22;58645;43.068;25.610;2022-11-12T14:20:07;10.60;99.90
70986;DHT22;58645;43.068;25.610;2022-11-12T14:22:41;10.60;99.90
70986;DHT22;58645;43.068;25.610;2022-11-12T14:25:17;10.50;99.90
70986;DHT22;58645;43.068;25.610;2022-11-12T14:27:44;10.50;99.90
70986;DHT22;58645;43.068;25.610;2022-11-12T14:32:39;10.50;99.90
70986;DHT22;58645;43.068;25.610;2022-11-12T14:35:25;10.50;99.90
70986;DHT22;58645;43.068;25.610;2022-11-12T14:37:57;10.50;99.90
70986;DHT22;58645;43.068;25.610;2022-11-12T14:40:26;10.40;99.90
70986;DHT22;58645;43.068;25.610;2022-11-12T14:42:53;10.40;99.90
70986;DHT22;58645;43.068;25.610;2022-11-12T14:45:20;10.40;99.90
70986;DHT22;58645;43.068;25.610;2022-11-12T14:47:48;10.40;99.90
70986;DHT22;58645;43.068;25.610;2022-11-12T14:50:19;10.40;99.90
70986;DHT22;58645;43.068;25.610;2022-11-12T14:52:48;10.40;99.90
70986;DHT22;58645;43.068;25.610;2022-11-12T14:55:21;10.40;99.90
70986;DHT22;58645;43.068;25.610;2022-11-12T14:57:47;10.40;99.90
70986;DHT22;58645;43.068;25.610;2022-11-12T15:00:41;10.40;99.90
70986;DHT22;58645;43.068;25.610;2022-11-12T15:03:13;10.40;99.90
70986;DHT22;58645;43.068;25.610;2022-11-12T15:05:57;10.40;99.90
70986;DHT22;58645;43.068;25.610;2022-11-12T15:08:37;10.40;99.90
70986;DHT22;58645;43.068;25.610;2022-11-12T15:11:34;10.40;99.90
70986;DHT22;58645;43.068;25.610;2022-11-12T15:14:02;10.30;99.90
70986;DHT22;58645;43.068;25.610;2022-11-12T15:16:31;10.30;99.90
70986;DHT22;58645;43.068;25.610;2022-11-12T15:21:50;10.30;99.90
70986;DHT22;58645;43.068;25.610;2022-11-12T15:24:30;10.30;99.90
70986;DHT22;58645;43.068;25.610;2022-11-12T15:26:59;10.30;99.90
70986;DHT22;58645;43.068;25.610;2022-11-12T15:29:31;10.30;99.90
70986;DHT22;58645;43.068;25.610;2022-11-12T15:34:49;10.30;99.90
70986;DHT22;58645;43.068;25.610;2022-11-12T15:39:47;10.40;99.90
70986;DHT22;58645;43.068;25.610;2022-11-12T15:44:49;10.30;99.90
70986;DHT22;58645;43.068;25.610;2022-11-12T15:47:19;10.30;99.90
70986;DHT22;58645;43.068;25.610;2022-11-12T15:49:54;10.30;99.90
70986;DHT22;58645;43.068;25.610;2022-11-12T15:52:21;10.30;99.90
70986;DHT22;58645;43.068;25.610;2022-11-12T15:54:46;10.30;99.90
70986;DHT22;58645;43.068;25.610;2022-11-12T15:57:27;10.30;99.90
70986;DHT22;58645;43.068;25.610;2022-11-12T15:59:58;10.30;99.90
70986;DHT22;58645;43.068;25.610;2022-11-12T16:02:25;10.30;99.90
70986;DHT22;58645;43.068;25.610;2022-11-12T16:04:51;10.20;99.90
70986;DHT22;58645;43.068;25.610;2022-11-12T16:07:17;10.20;99.90
70986;DHT22;58645;43.068;25.610;2022-11-12T16:09:42;10.10;99.90
70986;DHT22;58645;43.068;25.610;2022-11-12T16:12:10;10.10;99.90
70986;DHT22;58645;43.068;25.610;2022-11-12T16:14:37;10.10;99.90
70986;DHT22;58645;43.068;25.610;2022-11-12T16:17:03;10.10;99.90
70986;DHT22;58645;43.068;25.610;2022-11-12T16:19:29;10.10;99.90
70986;DHT22;58645;43.068;25.610;2022-11-12T16:21:59;10.10;99.90
70986;DHT22;58645;43.068;25.610;2022-11-12T16:24:25;10.10;99.90
70986;DHT22;58645;43.068;25.610;2022-11-12T16:26:52;10.00;99.90
70986;DHT22;58645;43.068;25.610;2022-11-12T16:29:17;10.10;99.90
70986;DHT22;58645;43.068;25.610;2022-11-12T16:31:44;10.10;99.90
70986;DHT22;58645;43.068;25.610;2022-11-12T16:34:10;10.10;99.90
70986;DHT22;58645;43.068;25.610;2022-11-12T16:36:36;10.10;99.90
70986;DHT22;58645;43.068;25.610;2022-11-12T16:39:02;10.00;99.90
70986;DHT22;58645;43.068;25.610;2022-11-12T16:41:29;10.10;99.90
70986;DHT22;58645;43.068;25.610;2022-11-12T16:43:54;10.10;99.90
70986;DHT22;58645;43.068;25.610;2022-11-12T16:46:25;10.10;99.90
70986;DHT22;58645;43.068;25.610;2022-11-12T16:48:52;10.10;99.90
70986;DHT22;58645;43.068;25.610;2022-11-12T16:51:19;10.10;99.90
70986;DHT22;58645;43.068;25.610;2022-11-12T16:53:45;10.10;99.90
70986;DHT22;58645;43.068;25.610;2022-11-12T16:56:20;10.10;99.90
70986;DHT22;58645;43.068;25.610;2022-11-12T16:58:46;10.10;99.90
70986;DHT22;58645;43.068;25.610;2022-11-12T17:01:33;10.10;99.90
70986;DHT22;58645;43.068;25.610;2022-11-12T17:03:58;10.10;99.90
70986;DHT22;58645;43.068;25.610;2022-11-12T17:06:35;10.10;99.90
70986;DHT22;58645;43.068;25.610;2022-11-12T17:09:03;10.00;99.90
70986;DHT22;58645;43.068;25.610;2022-11-12T17:11:29;10.00;99.90
70986;DHT22;58645;43.068;25.610;2022-11-12T17:13:55;10.00;99.90
70986;DHT22;58645;43.068;25.610;2022-11-12T17:16:20;10.00;99.90
70986;DHT22;58645;43.068;25.610;2022-11-12T17:18:46;10.00;99.90
70986;DHT22;58645;43.068;25.610;2022-11-12T17:21:15;9.90;99.90
70986;DHT22;58645;43.068;25.610;2022-11-12T17:23:41;10.00;99.90
70986;DHT22;58645;43.068;25.610;2022-11-12T17:26:10;9.90;99.90
70986;DHT22;58645;43.068;25.610;2022-11-12T17:28:36;9.90;99.90
70986;DHT22;58645;43.068;25.610;2022-11-12T17:31:15;9.80;99.90
70986;DHT22;58645;43.068;25.610;2022-11-12T17:33:43;9.90;99.90
70986;DHT22;58645;43.068;25.610;2022-11-12T17:36:14;9.80;99.90
70986;DHT22;58645;43.068;25.610;2022-11-12T17:38:40;9.80;99.90
70986;DHT22;58645;43.068;25.610;2022-11-12T17:41:07;9.80;99.90
70986;DHT22;58645;43.068;25.610;2022-11-12T17:43:35;9.80;99.90
70986;DHT22;58645;43.068;25.610;2022-11-12T17:46:01;9.90;99.90
70986;DHT22;58645;43.068;25.610;2022-11-12T17:48:29;9.90;99.90
70986;DHT22;58645;43.068;25.610;2022-11-12T17:53:29;9.90;99.90